Flight Track Log - Related Links

Times and Time Zones

All times are in EDT time to prevent confusion due to time zone crossing. See the N269C flight status page for this flight to view local times or setup timezone preferences in your user account.

Time Position Orientation Groundspeed Altitude Reporting Facility
EDT Latitude Longitude Course Direction KTS MPH feet Rate Location/Type
Fri 07:22:23 PM 47.5461 -122.3181 304° West 119 137 800  Level Seattle Center
Fri 07:23:30 PM 47.5656 -122.3600 305° West 138 159 2,100 992 Climbing Seattle Center
Fri 07:24:30 PM 47.5517 -122.4103 248° West 143 165 2,900 850 Climbing Seattle Center
Fri 07:25:37 PM 47.5122 -122.4483 213° Southwest 146 168 3,900 957 Climbing Seattle Center
Fri 07:26:48 PM 47.4678 -122.4364 170° South 141 162 5,100 1,091 Climbing Seattle Center
Fri 07:27:49 PM 47.4272 -122.4317 175° South 139 160 6,300 1,082 Climbing Seattle Center
Fri 07:28:50 PM 47.3903 -122.4253 173° South 138 159 7,300 934 Climbing Seattle Center
Fri 07:29:51 PM 47.3500 -122.4200 175° South 142 163 8,200 934 Climbing Seattle Center
Fri 07:30:52 PM 47.3097 -122.4144 175° South 145 167 9,200 992 Climbing Seattle Center
Fri 07:31:52 PM 47.2683 -122.4094 175° South 147 169 10,200 1,041 Climbing Seattle Center
Fri 07:32:53 PM 47.2231 -122.4044 176° South 148 170 11,300 984 Climbing Seattle Center
Fri 07:33:54 PM 47.1797 -122.4008 177° South 154 177 12,200 934 Climbing Seattle Center
Fri 07:34:55 PM 47.1364 -122.3950 175° South 154 177 13,200 934 Climbing Seattle Center
Fri 07:35:56 PM 47.0925 -122.3892 175° South 156 180 14,100 934 Climbing Seattle Center
Fri 07:36:57 PM 47.0486 -122.3822 174° South 157 181 15,100 984 Climbing Seattle Center
Fri 07:37:58 PM 47.0019 -122.3844 182° South 157 181 16,100 934 Climbing Seattle Center
Fri 07:38:59 PM 46.9594 -122.3922 187° South 156 180 17,000 843 Climbing Seattle Center
Fri 07:39:59 PM 46.9156 -122.3997 187° South 157 181 17,800 843 Climbing Seattle Center
Fri 07:41:00 PM 46.8733 -122.4069 187° South 156 180 18,700 836 Climbing Seattle Center
Fri 07:42:01 PM 46.8286 -122.4156 188° South 159 183 19,500 787 Climbing Seattle Center
Fri 07:43:02 PM 46.7839 -122.4233 187° South 159 183 20,300 738 Climbing Seattle Center
Fri 07:44:03 PM 46.7383 -122.4289 185° South 161 185 21,000 344 Climbing Seattle Center
Fri 07:45:04 PM 46.6864 -122.4403 189° South 187 215 21,000 49 Level Seattle Center
Fri 07:46:05 PM 46.6308 -122.4544 190° South 197 227 21,100 49 Climbing Seattle Center
Fri 07:47:06 PM 46.5772 -122.4414 170° South 200 230 21,100  Level Seattle Center
Fri 07:48:07 PM 46.5442 -122.3708 124° Southeast 211 243 21,100 -49 Level Seattle Center
Fri 07:49:08 PM 46.4919 -122.3739 182° South 190 219 21,000  Descending Seattle Center
Fri 07:50:09 PM 46.4319 -122.4242 210° Southwest 203 234 21,100  Climbing Seattle Center
Fri 07:51:10 PM 46.3811 -122.4569 204° Southwest 202 232 21,000 -99 Descending Seattle Center
Fri 07:52:10 PM 46.3297 -122.4889 203° Southwest 201 231 20,900  Descending Seattle Center
Fri 07:53:11 PM 46.2761 -122.5150 199° South 201 231 21,000 98 Climbing Seattle Center
Fri 07:54:12 PM 46.2197 -122.5167 181° South 200 230 21,100  Climbing Seattle Center
Fri 07:55:13 PM 46.1628 -122.5303 189° South 200 230 21,000 -49 Descending Seattle Center
Fri 07:56:14 PM 46.1047 -122.5381 185° South 203 234 21,000  Level Seattle Center
Fri 07:57:15 PM 46.0483 -122.5492 188° South 204 235 21,000  Level Seattle Center
Fri 07:58:16 PM 45.9900 -122.5586 186° South 206 237 21,000  Level Seattle Center
Fri 07:59:17 PM 45.9331 -122.5664 185° South 205 236 21,000 49 Level Seattle Center
Fri 08:00:18 PM 45.8750 -122.5733 185° South 208 239 21,100 49 Climbing Seattle Center
Fri 08:01:19 PM 45.8175 -122.5825 186° South 207 238 21,100  Level Seattle Center
Fri 08:02:19 PM 45.7603 -122.5917 186° South 206 237 21,100  Level Seattle Center
Fri 08:03:20 PM 45.7042 -122.6042 189° South 205 236 21,100  Level Seattle Center
Fri 08:04:21 PM 45.6478 -122.6186 190° South 205 236 21,100  Level Seattle Center
Fri 08:05:22 PM 45.5922 -122.6336 191° South 204 235 21,100  Level Seattle Center
Fri 08:06:23 PM 45.5367 -122.6486 191° South 203 234 21,100  Level Seattle Center
Fri 08:07:24 PM 45.4700 -122.6644 189° South 203 234 21,100  Level Seattle Center
Fri 08:08:25 PM 45.4139 -122.6803 191° South 203 234 21,100  Level Seattle Center
Fri 08:09:26 PM 45.3581 -122.6944 190° South 203 234 21,100  Level Seattle Center
Fri 08:10:27 PM 45.3025 -122.7081 190° South 202 232 21,100  Level Seattle Center
Fri 08:11:28 PM 45.2486 -122.7231 191° South 200 230 21,100  Level Seattle Center
Fri 08:12:29 PM 45.1953 -122.7375 191° South 199 229 21,100  Level Seattle Center
Fri 08:13:30 PM 45.1397 -122.7503 189° South 199 229 21,100  Level Seattle Center
Fri 08:14:31 PM 45.0839 -122.7644 190° South 200 230 21,100  Level Seattle Center
Fri 08:15:32 PM 45.0367 -122.8033 210° Southwest 200 230 21,100  Level Seattle Center
Fri 08:16:33 PM 44.9936 -122.8528 219° Southwest 199 229 21,100  Level Seattle Center
Fri 08:17:34 PM 44.9497 -122.9006 218° Southwest 198 228 21,100  Level Seattle Center
Fri 08:18:35 PM 44.9069 -122.9475 218° Southwest 198 228 21,100  Level Seattle Center
Fri 08:19:36 PM 44.8575 -122.9778 203° Southwest 199 229 21,100  Level Seattle Center
Fri 08:20:37 PM 44.8014 -122.9881 187° South 203 234 21,100  Level Seattle Center
Fri 08:21:38 PM 44.7458 -122.9989 188° South 202 232 21,100  Level Seattle Center
Fri 08:22:39 PM 44.6786 -123.0128 188° South 203 234 21,100  Level Seattle Center
Fri 08:23:40 PM 44.6233 -123.0214 186° South 202 232 21,100  Level Seattle Center
Fri 08:24:41 PM 44.5672 -123.0328 188° South 202 232 21,100  Level Seattle Center
Fri 08:25:42 PM 44.5094 -123.0422 187° South 203 234 21,100  Level Seattle Center
Fri 08:26:43 PM 44.4531 -123.0522 187° South 204 235 21,100  Level Seattle Center
Fri 08:27:44 PM 44.3961 -123.0625 187° South 204 235 21,100  Level Seattle Center
Fri 08:28:45 PM 44.3406 -123.0731 188° South 204 235 21,100 -49 Level Seattle Center
Fri 08:29:46 PM 44.2847 -123.0825 187° South 203 234 21,000 -98 Descending Seattle Center
Fri 08:30:47 PM 44.2283 -123.0919 187° South 203 234 20,900 -49 Descending Seattle Center
Fri 08:31:48 PM 44.1728 -123.1008 187° South 203 234 20,900  Level Seattle Center
Fri 08:32:49 PM 44.1181 -123.1106 187° South 202 232 20,900  Level Seattle Center
Fri 08:33:50 PM 44.0631 -123.1206 187° South 202 232 20,900 49 Level Seattle Center
Fri 08:34:51 PM 44.0081 -123.1317 188° South 198 228 21,000 50 Climbing Seattle Center
Fri 08:35:51 PM 43.9539 -123.1400 186° South 197 227 21,000  Level Seattle Center
Fri 08:36:52 PM 43.8903 -123.1522 188° South 195 224 21,000  Level Seattle Center
Fri 08:37:53 PM 43.8369 -123.1608 187° South 194 223 21,000  Level Seattle Center
Fri 08:38:54 PM 43.7842 -123.1719 189° South 194 223 21,000  Level Seattle Center
Fri 08:39:55 PM 43.7342 -123.2019 203° Southwest 194 223 21,000  Level Seattle Center
Fri 08:40:56 PM 43.6831 -123.2267 199° South 194 223 21,000 -246 Level Seattle Center
Fri 08:41:57 PM 43.6292 -123.2461 195° South 195 224 20,500 -541 Descending Seattle Center
Fri 08:42:58 PM 43.5739 -123.2650 194° South 199 229 19,900 -590 Descending Seattle Center
Fri 08:43:59 PM 43.5169 -123.2836 193° South 208 239 19,300 -639 Descending Seattle Center
Fri 08:45:00 PM 43.4603 -123.3039 195° South 208 239 18,600 -738 Descending Seattle Center
Fri 08:46:01 PM 43.3989 -123.3225 192° South 211 243 17,800 -738 Descending Seattle Center
Fri 08:47:02 PM 43.3397 -123.3383 191° South 213 245 17,100 -738 Descending Seattle Center
Fri 08:48:03 PM 43.2811 -123.3531 190° South 211 243 16,300 -738 Descending Seattle Center
Fri 08:49:04 PM 43.2278 -123.3639 188° South 212 244 15,600 -689 Descending Seattle Center
Fri 08:50:05 PM 43.1694 -123.3769 189° South 212 244 14,900 -639 Descending Seattle Center
Fri 08:51:06 PM 43.1133 -123.3997 197° South 211 243 14,300 -590 Descending Seattle Center
Fri 08:52:07 PM 43.0458 -123.4192 192° South 208 239 13,700 -590 Descending Seattle Center
Fri 08:53:08 PM 42.9914 -123.4300 188° South 201 231 13,100 -694 Descending Seattle Center
Fri 08:54:08 PM 42.9336 -123.4547 197° South 216 249 12,300 -744 Descending Seattle Center
Fri 08:55:09 PM 42.8781 -123.4697 191° South 207 238 11,600 -738 Descending Seattle Center
Fri 08:56:10 PM 42.8206 -123.4875 193° South 202 232 10,800 -787 Descending Seattle Center
Fri 08:57:11 PM 42.7647 -123.5058 194° South 206 237 10,000 -836 Descending Seattle Center
Fri 08:58:12 PM 42.7125 -123.5228 193° South 196 226 9,100 -984 Descending Seattle Center
Fri 08:59:13 PM 42.6594 -123.5397 193° South 196 226 8,000 -1,082 Descending Seattle Center

Login

Don't have an account? Register now (free) for customized features, flight alerts, and more!